sensor_id;sensor_type;location;lat;lon;timestamp;pressure;altitude;pressure_sealevel;temperature;humidity
58373;BME280;44177;43.356;27.672;2022-11-11T00:00:34;99130.81;;;15.54;50.71
58373;BME280;44177;43.356;27.672;2022-11-11T00:03:00;99134.69;;;15.53;50.48
58373;BME280;44177;43.356;27.672;2022-11-11T00:05:26;99143.72;;;15.54;50.41
58373;BME280;44177;43.356;27.672;2022-11-11T00:07:53;99134.69;;;15.53;50.73
58373;BME280;44177;43.356;27.672;2022-11-11T00:10:27;99127.22;;;15.54;50.36
58373;BME280;44177;43.356;27.672;2022-11-11T00:12:53;99132.75;;;15.54;50.32
58373;BME280;44177;43.356;27.672;2022-11-11T00:15:18;99128.38;;;15.53;50.59
58373;BME280;44177;43.356;27.672;2022-11-11T00:17:44;99124.84;;;15.52;50.68
58373;BME280;44177;43.356;27.672;2022-11-11T00:20:28;99120.13;;;15.53;50.70
58373;BME280;44177;43.356;27.672;2022-11-11T00:23:24;99125.63;;;15.53;50.45
58373;BME280;44177;43.356;27.672;2022-11-11T00:26:08;99116.59;;;15.52;50.46
58373;BME280;44177;43.356;27.672;2022-11-11T00:28:34;99119.72;;;15.51;50.47
58373;BME280;44177;43.356;27.672;2022-11-11T00:31:07;99111.03;;;15.48;50.67
58373;BME280;44177;43.356;27.672;2022-11-11T00:33:33;99115.38;;;15.50;50.52
58373;BME280;44177;43.356;27.672;2022-11-11T00:35:59;99116.16;;;15.50;50.45
58373;BME280;44177;43.356;27.672;2022-11-11T00:38:25;99116.97;;;15.51;50.82
58373;BME280;44177;43.356;27.672;2022-11-11T00:41:10;99109.06;;;15.49;50.79
58373;BME280;44177;43.356;27.672;2022-11-11T00:43:36;99105.78;;;15.43;50.56
58373;BME280;44177;43.356;27.672;2022-11-11T00:46:02;99118.13;;;15.50;50.52
58373;BME280;44177;43.356;27.672;2022-11-11T00:48:46;99114.56;;;15.49;50.62
58373;BME280;44177;43.356;27.672;2022-11-11T00:51:30;99111.03;;;15.48;50.60
58373;BME280;44177;43.356;27.672;2022-11-11T00:53:55;99115.38;;;15.50;50.34
58373;BME280;44177;43.356;27.672;2022-11-11T00:56:22;99108.28;;;15.48;50.77
58373;BME280;44177;43.356;27.672;2022-11-11T00:58:48;99106.50;;;15.40;50.83
58373;BME280;44177;43.356;27.672;2022-11-11T01:01:14;99117.66;;;15.47;50.78
58373;BME280;44177;43.356;27.672;2022-11-11T01:03:40;99108.59;;;15.47;50.86
58373;BME280;44177;43.356;27.672;2022-11-11T01:06:05;99112.16;;;15.47;50.85
58373;BME280;44177;43.356;27.672;2022-11-11T01:08:31;99112.16;;;15.47;50.59
58373;BME280;44177;43.356;27.672;2022-11-11T01:10:57;99109.78;;;15.46;50.47
58373;BME280;44177;43.356;27.672;2022-11-11T01:13:27;99110.13;;;15.44;50.55
58373;BME280;44177;43.356;27.672;2022-11-11T01:16:00;99107.81;;;15.46;50.89
58373;BME280;44177;43.356;27.672;2022-11-11T01:18:26;99109.78;;;15.46;50.80
58373;BME280;44177;43.356;27.672;2022-11-11T01:21:03;99106.59;;;15.44;50.83
58373;BME280;44177;43.356;27.672;2022-11-11T01:23:31;99106.22;;;15.45;50.82
58373;BME280;44177;43.356;27.672;2022-11-11T01:26:08;99106.59;;;15.44;50.64
58373;BME280;44177;43.356;27.672;2022-11-11T01:28:35;99105.00;;;15.43;50.93
58373;BME280;44177;43.356;27.672;2022-11-11T01:31:03;99104.22;;;15.42;51.06
58373;BME280;44177;43.356;27.672;2022-11-11T01:33:29;99101.00;;;15.40;50.50
58373;BME280;44177;43.356;27.672;2022-11-11T01:35:55;99110.50;;;15.43;50.43
58373;BME280;44177;43.356;27.672;2022-11-11T01:38:20;99111.28;;;15.43;50.65
58373;BME280;44177;43.356;27.672;2022-11-11T01:40:47;99103.38;;;15.42;50.59
58373;BME280;44177;43.356;27.672;2022-11-11T01:43:18;99108.88;;;15.42;50.94
58373;BME280;44177;43.356;27.672;2022-11-11T01:51:22;99106.50;;;15.40;50.50
58373;BME280;44177;43.356;27.672;2022-11-11T01:53:55;99099.69;;;15.34;50.72
58373;BME280;44177;43.356;27.672;2022-11-11T01:56:22;99109.63;;;15.39;50.54
58373;BME280;44177;43.356;27.672;2022-11-11T01:58:49;99108.81;;;15.38;50.60
58373;BME280;44177;43.356;27.672;2022-11-11T02:01:16;99098.44;;;15.31;50.98
58373;BME280;44177;43.356;27.672;2022-11-11T02:03:42;99112.38;;;15.39;50.48
58373;BME280;44177;43.356;27.672;2022-11-11T02:06:29;99114.31;;;15.38;50.94
58373;BME280;44177;43.356;27.672;2022-11-11T02:08:56;99109.63;;;15.39;50.87
58373;BME280;44177;43.356;27.672;2022-11-11T02:11:22;99115.47;;;15.37;50.64
58373;BME280;44177;43.356;27.672;2022-11-11T02:14:08;99113.53;;;15.38;50.61
58373;BME280;44177;43.356;27.672;2022-11-11T02:16:52;99112.72;;;15.37;50.91
58373;BME280;44177;43.356;27.672;2022-11-11T02:19:24;99119.34;;;15.36;50.68
58373;BME280;44177;43.356;27.672;2022-11-11T02:21:57;99113.84;;;15.36;50.54
58373;BME280;44177;43.356;27.672;2022-11-11T02:24:25;99111.09;;;15.36;50.44
58373;BME280;44177;43.356;27.672;2022-11-11T02:26:53;99115.81;;;15.36;50.53
58373;BME280;44177;43.356;27.672;2022-11-11T02:29:20;99123.25;;;15.35;50.80
58373;BME280;44177;43.356;27.672;2022-11-11T02:31:46;99117.75;;;15.35;50.72
58373;BME280;44177;43.356;27.672;2022-11-11T02:34:12;99119.72;;;15.35;50.82
58373;BME280;44177;43.356;27.672;2022-11-11T02:36:38;99124.44;;;15.34;50.93
58373;BME280;44177;43.356;27.672;2022-11-11T02:39:05;99122.47;;;15.35;50.66
58373;BME280;44177;43.356;27.672;2022-11-11T02:41:30;99120.88;;;15.34;50.63
58373;BME280;44177;43.356;27.672;2022-11-11T02:44:14;99123.63;;;15.34;50.70
58373;BME280;44177;43.356;27.672;2022-11-11T02:46:39;99120.09;;;15.33;50.62
58373;BME280;44177;43.356;27.672;2022-11-11T02:49:05;99122.84;;;15.33;50.79
58373;BME280;44177;43.356;27.672;2022-11-11T02:51:30;99111.84;;;15.33;50.66
58373;BME280;44177;43.356;27.672;2022-11-11T02:53:56;99113.00;;;15.32;50.68
58373;BME280;44177;43.356;27.672;2022-11-11T02:56:25;99114.91;;;15.31;51.00
58373;BME280;44177;43.356;27.672;2022-11-11T02:59:09;99111.84;;;15.33;50.72
58373;BME280;44177;43.356;27.672;2022-11-11T03:01:36;99108.28;;;15.32;50.80
58373;BME280;44177;43.356;27.672;2022-11-11T03:04:02;99108.63;;;15.31;50.61
58373;BME280;44177;43.356;27.672;2022-11-11T03:06:27;99114.13;;;15.31;50.58
58373;BME280;44177;43.356;27.672;2022-11-11T03:08:53;99111.75;;;15.29;50.67
58373;BME280;44177;43.356;27.672;2022-11-11T03:11:18;99114.13;;;15.31;50.70
58373;BME280;44177;43.356;27.672;2022-11-11T03:14:00;99111.38;;;15.31;50.67
58373;BME280;44177;43.356;27.672;2022-11-11T03:16:26;99116.88;;;15.31;50.90
58373;BME280;44177;43.356;27.672;2022-11-11T03:19:12;99115.28;;;15.30;50.75
58373;BME280;44177;43.356;27.672;2022-11-11T03:21:37;99120.78;;;15.30;51.04
58373;BME280;44177;43.356;27.672;2022-11-11T03:24:03;99124.34;;;15.30;50.51
58373;BME280;44177;43.356;27.672;2022-11-11T03:26:29;99118.03;;;15.30;50.63
58373;BME280;44177;43.356;27.672;2022-11-11T03:28:54;99123.53;;;15.30;50.77
58373;BME280;44177;43.356;27.672;2022-11-11T03:31:20;99123.53;;;15.30;50.56
58373;BME280;44177;43.356;27.672;2022-11-11T03:33:46;99115.66;;;15.28;50.87
58373;BME280;44177;43.356;27.672;2022-11-11T03:36:11;99118.84;;;15.30;50.61
58373;BME280;44177;43.356;27.672;2022-11-11T03:38:37;99110.94;;;15.29;50.86
58373;BME280;44177;43.356;27.672;2022-11-11T03:41:03;99120.34;;;15.28;50.52
58373;BME280;44177;43.356;27.672;2022-11-11T03:43:31;99121.94;;;15.29;50.54
58373;BME280;44177;43.356;27.672;2022-11-11T03:45:58;99131.31;;;15.28;50.61
58373;BME280;44177;43.356;27.672;2022-11-11T03:48:26;99126.66;;;15.28;50.63
58373;BME280;44177;43.356;27.672;2022-11-11T03:50:51;99123.09;;;15.28;50.88
58373;BME280;44177;43.356;27.672;2022-11-11T03:53:18;99118.75;;;15.27;50.85
58373;BME280;44177;43.356;27.672;2022-11-11T03:55:47;99120.34;;;15.28;50.74
58373;BME280;44177;43.356;27.672;2022-11-11T03:58:13;99126.66;;;15.28;50.51
58373;BME280;44177;43.356;27.672;2022-11-11T04:00:39;99123.09;;;15.28;51.00
58373;BME280;44177;43.356;27.672;2022-11-11T04:03:13;99124.25;;;15.27;50.77
58373;BME280;44177;43.356;27.672;2022-11-11T04:05:58;99127.00;;;15.27;50.81
58373;BME280;44177;43.356;27.672;2022-11-11T04:08:42;99125.84;;;15.28;50.48
58373;BME280;44177;43.356;27.672;2022-11-11T04:11:29;99122.66;;;15.26;50.63
58373;BME280;44177;43.356;27.672;2022-11-11T04:14:01;99129.75;;;15.27;50.74
58373;BME280;44177;43.356;27.672;2022-11-11T04:16:46;99128.94;;;15.26;50.50
58373;BME280;44177;43.356;27.672;2022-11-11T04:19:11;99126.56;;;15.25;50.85
58373;BME280;44177;43.356;27.672;2022-11-11T04:21:55;99129.31;;;15.25;50.57
58373;BME280;44177;43.356;27.672;2022-11-11T04:24:21;99126.56;;;15.25;50.82
58373;BME280;44177;43.356;27.672;2022-11-11T04:27:07;99130.47;;;15.24;51.01
58373;BME280;44177;43.356;27.672;2022-11-11T04:29:33;99123.81;;;15.25;50.89
58373;BME280;44177;43.356;27.672;2022-11-11T04:32:20;99129.31;;;15.25;50.80
58373;BME280;44177;43.356;27.672;2022-11-11T04:35:07;99126.56;;;15.25;50.90
58373;BME280;44177;43.356;27.672;2022-11-11T04:37:36;99130.47;;;15.24;51.01
58373;BME280;44177;43.356;27.672;2022-11-11T04:40:02;99131.59;;;15.23;50.60
58373;BME280;44177;43.356;27.672;2022-11-11T04:42:46;99131.16;;;15.21;50.61
58373;BME280;44177;43.356;27.672;2022-11-11T04:45:12;99130.47;;;15.24;50.88
58373;BME280;44177;43.356;27.672;2022-11-11T04:47:56;99133.56;;;15.22;50.47
58373;BME280;44177;43.356;27.672;2022-11-11T04:50:23;99143.75;;;15.22;50.78
58373;BME280;44177;43.356;27.672;2022-11-11T04:52:49;99142.16;;;15.21;50.85
58373;BME280;44177;43.356;27.672;2022-11-11T04:55:15;99146.94;;;15.24;50.90
58373;BME280;44177;43.356;27.672;2022-11-11T04:57:59;99149.25;;;15.22;50.94
58373;BME280;44177;43.356;27.672;2022-11-11T05:00:25;99156.34;;;15.23;50.90
58373;BME280;44177;43.356;27.672;2022-11-11T05:02:54;99154.75;;;15.22;50.59
58373;BME280;44177;43.356;27.672;2022-11-11T05:05:39;99147.56;;;15.17;50.61
58373;BME280;44177;43.356;27.672;2022-11-11T05:08:23;99159.44;;;15.21;50.60
58373;BME280;44177;43.356;27.672;2022-11-11T05:11:07;99168.47;;;15.22;50.78
58373;BME280;44177;43.356;27.672;2022-11-11T05:13:32;99162.53;;;15.20;50.68
58373;BME280;44177;43.356;27.672;2022-11-11T05:16:19;99158.63;;;15.21;50.55
58373;BME280;44177;43.356;27.672;2022-11-11T05:19:05;99170.78;;;15.20;50.61
58373;BME280;44177;43.356;27.672;2022-11-11T05:21:52;99171.97;;;15.19;50.77
58373;BME280;44177;43.356;27.672;2022-11-11T05:24:20;99175.13;;;15.21;50.54
58373;BME280;44177;43.356;27.672;2022-11-11T05:27:04;99164.88;;;15.18;50.74
58373;BME280;44177;43.356;27.672;2022-11-11T05:29:29;99172.38;;;15.21;50.51
58373;BME280;44177;43.356;27.672;2022-11-11T05:31:55;99171.59;;;15.20;50.74
58373;BME280;44177;43.356;27.672;2022-11-11T05:34:20;99175.50;;;15.19;50.59
58373;BME280;44177;43.356;27.672;2022-11-11T05:36:46;99177.09;;;15.20;50.93
58373;BME280;44177;43.356;27.672;2022-11-11T05:39:11;99173.53;;;15.20;50.63
58373;BME280;44177;43.356;27.672;2022-11-11T05:41:36;99179.03;;;15.20;50.86
58373;BME280;44177;43.356;27.672;2022-11-11T05:44:02;99183.38;;;15.21;50.34
58373;BME280;44177;43.356;27.672;2022-11-11T05:46:27;99184.53;;;15.20;50.61
58373;BME280;44177;43.356;27.672;2022-11-11T05:48:53;99188.88;;;15.21;50.43
58373;BME280;44177;43.356;27.672;2022-11-11T05:51:36;99190.03;;;15.20;50.45
58373;BME280;44177;43.356;27.672;2022-11-11T05:54:02;99195.50;;;15.20;50.84
58373;BME280;44177;43.356;27.672;2022-11-11T05:56:28;99191.63;;;15.21;50.68
58373;BME280;44177;43.356;27.672;2022-11-11T05:58:53;99192.44;;;15.21;50.61
58373;BME280;44177;43.356;27.672;2022-11-11T06:01:18;99183.38;;;15.21;50.43
58373;BME280;44177;43.356;27.672;2022-11-11T06:03:44;99192.44;;;15.21;50.64
58373;BME280;44177;43.356;27.672;2022-11-11T06:06:10;99196.69;;;15.19;50.61
58373;BME280;44177;43.356;27.672;2022-11-11T06:08:36;99202.63;;;15.21;50.73
58373;BME280;44177;43.356;27.672;2022-11-11T06:11:01;99204.56;;;15.20;50.53
58373;BME280;44177;43.356;27.672;2022-11-11T06:13:26;99214.44;;;15.21;50.67
58373;BME280;44177;43.356;27.672;2022-11-11T06:15:52;99210.84;;;15.21;50.67
58373;BME280;44177;43.356;27.672;2022-11-11T06:18:20;99216.34;;;15.21;50.62
58373;BME280;44177;43.356;27.672;2022-11-11T06:20:45;99219.91;;;15.21;50.29
58373;BME280;44177;43.356;27.672;2022-11-11T06:23:12;99224.59;;;15.21;50.59
58373;BME280;44177;43.356;27.672;2022-11-11T06:25:37;99230.09;;;15.21;50.42
58373;BME280;44177;43.356;27.672;2022-11-11T06:28:21;99224.19;;;15.19;50.40
58373;BME280;44177;43.356;27.672;2022-11-11T06:30:47;99229.69;;;15.19;50.83
58373;BME280;44177;43.356;27.672;2022-11-11T06:33:12;99232.44;;;15.19;50.73
58373;BME280;44177;43.356;27.672;2022-11-11T06:35:42;99224.19;;;15.19;50.62
58373;BME280;44177;43.356;27.672;2022-11-11T06:38:07;99229.69;;;15.19;50.35
58373;BME280;44177;43.356;27.672;2022-11-11T06:40:33;99225.31;;;15.18;50.34
58373;BME280;44177;43.356;27.672;2022-11-11T06:42:59;99229.69;;;15.19;50.52
58373;BME280;44177;43.356;27.672;2022-11-11T06:45:27;99221.44;;;15.19;50.34
58373;BME280;44177;43.356;27.672;2022-11-11T06:47:53;99223.00;;;15.20;50.63
58373;BME280;44177;43.356;27.672;2022-11-11T06:50:19;99226.94;;;15.19;50.45
58373;BME280;44177;43.356;27.672;2022-11-11T06:52:45;99228.50;;;15.20;50.37
58373;BME280;44177;43.356;27.672;2022-11-11T06:55:10;99219.84;;;15.18;50.75
58373;BME280;44177;43.356;27.672;2022-11-11T06:57:37;99222.13;;;15.15;50.37
58373;BME280;44177;43.356;27.672;2022-11-11T07:00:03;99230.47;;;15.19;50.60
58373;BME280;44177;43.356;27.672;2022-11-11T07:02:29;99222.13;;;15.15;50.39
58373;BME280;44177;43.356;27.672;2022-11-11T07:04:55;99238.81;;;15.23;50.63
58373;BME280;44177;43.356;27.672;2022-11-11T07:07:20;99227.81;;;15.23;50.62
58373;BME280;44177;43.356;27.672;2022-11-11T07:09:46;99225.84;;;15.23;50.16
58373;BME280;44177;43.356;27.672;2022-11-11T07:12:11;99233.41;;;15.26;50.08
58373;BME280;44177;43.356;27.672;2022-11-11T07:14:37;99233.50;;;15.30;50.05
58373;BME280;44177;43.356;27.672;2022-11-11T07:17:02;99224.78;;;15.28;50.21
58373;BME280;44177;43.356;27.672;2022-11-11T07:19:29;99231.88;;;15.29;50.30
58373;BME280;44177;43.356;27.672;2022-11-11T07:21:54;99244.66;;;15.37;50.15
58373;BME280;44177;43.356;27.672;2022-11-11T07:24:20;99239.97;;;15.38;49.94
58373;BME280;44177;43.356;27.672;2022-11-11T07:26:45;99240.78;;;15.38;50.17
58373;BME280;44177;43.356;27.672;2022-11-11T07:29:11;99244.66;;;15.37;49.98
58373;BME280;44177;43.356;27.672;2022-11-11T07:31:38;99239.63;;;15.39;49.75
58373;BME280;44177;43.356;27.672;2022-11-11T07:34:04;99243.59;;;15.42;50.05
58373;BME280;44177;43.356;27.672;2022-11-11T07:36:29;99246.34;;;15.42;49.63
58373;BME280;44177;43.356;27.672;2022-11-11T07:38:54;99241.22;;;15.40;50.17
58373;BME280;44177;43.356;27.672;2022-11-11T07:41:21;99241.69;;;15.42;50.22
58373;BME280;44177;43.356;27.672;2022-11-11T07:43:47;99239.72;;;15.43;49.86
58373;BME280;44177;43.356;27.672;2022-11-11T07:46:12;99235.81;;;15.44;49.99
58373;BME280;44177;43.356;27.672;2022-11-11T07:48:38;99234.66;;;15.45;49.99
58373;BME280;44177;43.356;27.672;2022-11-11T07:51:03;99239.00;;;15.46;49.92
58373;BME280;44177;43.356;27.672;2022-11-11T07:53:29;99235.09;;;15.47;49.61
58373;BME280;44177;43.356;27.672;2022-11-11T07:55:54;99231.56;;;15.46;49.96
58373;BME280;44177;43.356;27.672;2022-11-11T07:58:20;99243.00;;;15.48;49.78
58373;BME280;44177;43.356;27.672;2022-11-11T08:00:45;99243.34;;;15.47;49.43
58373;BME280;44177;43.356;27.672;2022-11-11T08:03:11;99246.91;;;15.47;49.55
58373;BME280;44177;43.356;27.672;2022-11-11T08:05:36;99241.75;;;15.46;49.65
58373;BME280;44177;43.356;27.672;2022-11-11T08:08:03;99251.94;;;15.45;49.58
58373;BME280;44177;43.356;27.672;2022-11-11T08:10:29;99259.06;;;15.46;49.82
58373;BME280;44177;43.356;27.672;2022-11-11T08:12:55;99251.94;;;15.45;49.79
58373;BME280;44177;43.356;27.672;2022-11-11T08:15:40;99253.09;;;15.44;50.02
58373;BME280;44177;43.356;27.672;2022-11-11T08:18:06;99259.41;;;15.45;49.73
58373;BME280;44177;43.356;27.672;2022-11-11T08:20:32;99259.75;;;15.43;49.57
58373;BME280;44177;43.356;27.672;2022-11-11T08:22:58;99260.56;;;15.44;49.73
58373;BME280;44177;43.356;27.672;2022-11-11T08:25:24;99265.25;;;15.43;49.63
58373;BME280;44177;43.356;27.672;2022-11-11T08:28:00;99265.25;;;15.43;49.97
58373;BME280;44177;43.356;27.672;2022-11-11T08:30:26;99271.91;;;15.42;49.58
58373;BME280;44177;43.356;27.672;2022-11-11T08:32:59;99265.88;;;15.37;49.71
58373;BME280;44177;43.356;27.672;2022-11-11T08:35:26;99276.97;;;15.40;49.73
58373;BME280;44177;43.356;27.672;2022-11-11T08:37:52;99271.47;;;15.40;49.64
58373;BME280;44177;43.356;27.672;2022-11-11T08:40:17;99276.50;;;15.38;49.95
58373;BME280;44177;43.356;27.672;2022-11-11T08:42:44;99284.75;;;15.38;49.93
58373;BME280;44177;43.356;27.672;2022-11-11T08:45:09;99291.06;;;15.39;50.02
58373;BME280;44177;43.356;27.672;2022-11-11T08:47:35;99285.91;;;15.37;49.93
58373;BME280;44177;43.356;27.672;2022-11-11T08:50:02;99285.44;;;15.35;50.04
58373;BME280;44177;43.356;27.672;2022-11-11T08:52:27;99283.53;;;15.36;50.11
58373;BME280;44177;43.356;27.672;2022-11-11T08:54:53;99295.66;;;15.35;49.62
58373;BME280;44177;43.356;27.672;2022-11-11T08:57:18;99282.59;;;15.31;49.82
58373;BME280;44177;43.356;27.672;2022-11-11T08:59:44;99294.06;;;15.34;50.00
58373;BME280;44177;43.356;27.672;2022-11-11T09:02:11;99293.69;;;15.35;49.98
58373;BME280;44177;43.356;27.672;2022-11-11T09:04:37;99294.88;;;15.34;50.09
58373;BME280;44177;43.356;27.672;2022-11-11T09:07:03;99289.72;;;15.32;49.68
58373;BME280;44177;43.356;27.672;2022-11-11T09:09:28;99293.28;;;15.33;49.86
58373;BME280;44177;43.356;27.672;2022-11-11T09:11:54;99294.41;;;15.32;49.79
58373;BME280;44177;43.356;27.672;2022-11-11T09:14:20;99292.47;;;15.32;49.89
58373;BME280;44177;43.356;27.672;2022-11-11T09:16:45;99286.16;;;15.32;49.82
58373;BME280;44177;43.356;27.672;2022-11-11T09:19:11;99291.66;;;15.32;49.95
58373;BME280;44177;43.356;27.672;2022-11-11T09:21:36;99279.84;;;15.31;50.06
58373;BME280;44177;43.356;27.672;2022-11-11T09:24:02;99287.31;;;15.31;49.72
58373;BME280;44177;43.356;27.672;2022-11-11T09:26:27;99277.47;;;15.30;49.96
58373;BME280;44177;43.356;27.672;2022-11-11T09:28:52;99274.72;;;15.30;49.74
58373;BME280;44177;43.356;27.672;2022-11-11T09:31:18;99269.81;;;15.23;50.12
58373;BME280;44177;43.356;27.672;2022-11-11T09:33:43;99271.97;;;15.30;49.83
58373;BME280;44177;43.356;27.672;2022-11-11T09:36:09;99277.47;;;15.30;49.78
58373;BME280;44177;43.356;27.672;2022-11-11T09:38:34;99271.19;;;15.29;50.18
58373;BME280;44177;43.356;27.672;2022-11-11T09:42:05;99280.22;;;15.30;50.04
58373;BME280;44177;43.356;27.672;2022-11-11T09:44:04;99287.69;;;15.29;49.97
58373;BME280;44177;43.356;27.672;2022-11-11T09:46:41;99286.88;;;15.29;49.73
58373;BME280;44177;43.356;27.672;2022-11-11T09:54:40;99273.47;;;15.27;49.91
58373;BME280;44177;43.356;27.672;2022-11-11T09:57:18;99270.28;;;15.25;49.65
58373;BME280;44177;43.356;27.672;2022-11-11T09:59:49;99267.53;;;15.25;49.95
58373;BME280;44177;43.356;27.672;2022-11-11T10:02:38;99265.59;;;15.26;49.85
58373;BME280;44177;43.356;27.672;2022-11-11T10:05:14;99265.59;;;15.26;49.90
58373;BME280;44177;43.356;27.672;2022-11-11T10:07:54;99268.34;;;15.26;49.83
58373;BME280;44177;43.356;27.672;2022-11-11T10:10:28;99268.34;;;15.26;50.08
58373;BME280;44177;43.356;27.672;2022-11-11T10:12:57;99263.53;;;15.23;50.01
58373;BME280;44177;43.356;27.672;2022-11-11T10:15:34;99272.25;;;15.25;49.74
58373;BME280;44177;43.356;27.672;2022-11-11T10:20:48;99258.50;;;15.25;49.92
58373;BME280;44177;43.356;27.672;2022-11-11T10:23:23;99262.84;;;15.26;49.84
58373;BME280;44177;43.356;27.672;2022-11-11T10:25:54;99266.75;;;15.25;49.86
58373;BME280;44177;43.356;27.672;2022-11-11T10:28:24;99270.28;;;15.25;49.66
58373;BME280;44177;43.356;27.672;2022-11-11T10:30:50;99264.69;;;15.22;50.05
58373;BME280;44177;43.356;27.672;2022-11-11T10:33:27;99266.28;;;15.23;49.81
58373;BME280;44177;43.356;27.672;2022-11-11T10:35:55;99261.94;;;15.22;49.71
58373;BME280;44177;43.356;27.672;2022-11-11T10:38:40;99266.28;;;15.23;49.96
58373;BME280;44177;43.356;27.672;2022-11-11T10:41:19;99266.28;;;15.23;50.16
58373;BME280;44177;43.356;27.672;2022-11-11T10:43:47;99260.69;;;15.19;50.12
58373;BME280;44177;43.356;27.672;2022-11-11T10:46:34;99267.44;;;15.22;49.93
58373;BME280;44177;43.356;27.672;2022-11-11T10:49:14;99265.84;;;15.21;50.22
58373;BME280;44177;43.356;27.672;2022-11-11T10:51:48;99250.06;;;15.18;50.13
58373;BME280;44177;43.356;27.672;2022-11-11T10:54:20;99259.91;;;15.19;50.13
58373;BME280;44177;43.356;27.672;2022-11-11T11:02:15;99250.50;;;15.20;49.94
58373;BME280;44177;43.356;27.672;2022-11-11T11:04:52;99243.41;;;15.19;50.00
58373;BME280;44177;43.356;27.672;2022-11-11T11:07:23;99243.41;;;15.19;50.20
58373;BME280;44177;43.356;27.672;2022-11-11T11:10:02;99248.09;;;15.18;50.11
58373;BME280;44177;43.356;27.672;2022-11-11T11:12:44;99241.81;;;15.18;49.82
58373;BME280;44177;43.356;27.672;2022-11-11T11:15:17;99246.16;;;15.19;50.24
58373;BME280;44177;43.356;27.672;2022-11-11T11:17:52;99249.59;;;15.15;49.92
58373;BME280;44177;43.356;27.672;2022-11-11T11:20:21;99237.69;;;15.11;49.95
58373;BME280;44177;43.356;27.672;2022-11-11T11:22:52;99246.50;;;15.17;50.12
58373;BME280;44177;43.356;27.672;2022-11-11T11:25:19;99248.47;;;15.16;49.68
58373;BME280;44177;43.356;27.672;2022-11-11T11:27:45;99245.63;;;15.13;50.11
58373;BME280;44177;43.356;27.672;2022-11-11T11:30:23;99248.00;;;15.14;49.76
58373;BME280;44177;43.356;27.672;2022-11-11T11:35:39;99241.34;;;15.15;50.04
58373;BME280;44177;43.356;27.672;2022-11-11T11:38:06;99254.31;;;15.15;49.97
58373;BME280;44177;43.356;27.672;2022-11-11T11:43:31;99248.59;;;15.08;50.14
58373;BME280;44177;43.356;27.672;2022-11-11T11:45:58;99258.22;;;15.14;50.16
58373;BME280;44177;43.356;27.672;2022-11-11T11:51:19;99263.72;;;15.14;49.75
58373;BME280;44177;43.356;27.672;2022-11-11T11:56:36;99268.38;;;15.13;50.22
58373;BME280;44177;43.356;27.672;2022-11-11T12:02:04;99265.19;;;15.11;50.11
58373;BME280;44177;43.356;27.672;2022-11-11T12:20:42;99262.78;;;15.10;50.32
58373;BME280;44177;43.356;27.672;2022-11-11T12:23:29;99270.25;;;15.09;49.79
58373;BME280;44177;43.356;27.672;2022-11-11T12:26:01;99275.28;;;15.07;50.23
58373;BME280;44177;43.356;27.672;2022-11-11T12:44:12;99265.25;;;14.99;50.06
58373;BME280;44177;43.356;27.672;2022-11-11T12:52:33;99281.47;;;15.04;49.97
58373;BME280;44177;43.356;27.672;2022-11-11T12:58:25;99285.41;;;15.03;50.25
58373;BME280;44177;43.356;27.672;2022-11-11T13:09:09;99285.72;;;15.02;50.14
58373;BME280;44177;43.356;27.672;2022-11-11T13:14:30;99282.19;;;15.01;49.97
58373;BME280;44177;43.356;27.672;2022-11-11T13:17:00;99277.03;;;14.99;50.13
58373;BME280;44177;43.356;27.672;2022-11-11T13:19:33;99280.94;;;14.98;50.37
58373;BME280;44177;43.356;27.672;2022-11-11T13:24:48;99284.38;;;14.95;50.07
58373;BME280;44177;43.356;27.672;2022-11-11T13:27:47;99288.38;;;14.98;50.04
58373;BME280;44177;43.356;27.672;2022-11-11T13:33:07;99286.78;;;14.97;50.31
58373;BME280;44177;43.356;27.672;2022-11-11T13:40:51;99295.00;;;14.97;50.07
58373;BME280;44177;43.356;27.672;2022-11-11T13:43:23;99291.47;;;14.96;50.14
58373;BME280;44177;43.356;27.672;2022-11-11T13:45:55;99294.22;;;14.96;50.11
58373;BME280;44177;43.356;27.672;2022-11-11T13:48:45;99296.16;;;14.96;50.12
58373;BME280;44177;43.356;27.672;2022-11-11T13:51:33;99295.38;;;14.95;50.35
58373;BME280;44177;43.356;27.672;2022-11-11T13:54:01;99294.59;;;14.95;50.27
58373;BME280;44177;43.356;27.672;2022-11-11T13:59:02;99296.16;;;14.96;50.29
58373;BME280;44177;43.356;27.672;2022-11-11T14:01:38;99302.84;;;14.95;50.37
58373;BME280;44177;43.356;27.672;2022-11-11T14:04:07;99304.75;;;14.94;50.25
58373;BME280;44177;43.356;27.672;2022-11-11T14:08:58;99309.47;;;14.94;50.22
58373;BME280;44177;43.356;27.672;2022-11-11T14:13:54;99296.78;;;14.89;50.10
58373;BME280;44177;43.356;27.672;2022-11-11T14:21:49;99303.97;;;14.94;50.00
58373;BME280;44177;43.356;27.672;2022-11-11T14:24:34;99307.88;;;14.93;50.36
58373;BME280;44177;43.356;27.672;2022-11-11T14:27:14;99301.81;;;14.87;50.20
58373;BME280;44177;43.356;27.672;2022-11-11T14:29:53;99311.75;;;14.92;50.24
58373;BME280;44177;43.356;27.672;2022-11-11T14:37:37;99318.03;;;14.92;50.07
58373;BME280;44177;43.356;27.672;2022-11-11T14:40:11;99309.00;;;14.92;50.23
58373;BME280;44177;43.356;27.672;2022-11-11T14:47:47;99316.00;;;14.89;50.37
58373;BME280;44177;43.356;27.672;2022-11-11T14:52:55;99323.09;;;14.90;49.94
58373;BME280;44177;43.356;27.672;2022-11-11T14:58:15;99333.28;;;14.90;50.31
58373;BME280;44177;43.356;27.672;2022-11-11T15:03:51;99331.25;;;14.87;50.18
58373;BME280;44177;43.356;27.672;2022-11-11T15:06:22;99332.81;;;14.88;50.23
58373;BME280;44177;43.356;27.672;2022-11-11T15:12:11;99335.56;;;14.88;50.04
58373;BME280;44177;43.356;27.672;2022-11-11T15:14:51;99339.47;;;14.87;50.14
58373;BME280;44177;43.356;27.672;2022-11-11T15:20:02;99334.00;;;14.87;50.10